createdAt,value
2018-03-26T00:00:27.299Z,6.60
2018-03-26T00:02:55.561Z,8.10
2018-03-26T00:05:23.113Z,9.63
2018-03-26T00:07:50.598Z,8.40
2018-03-26T00:10:18.099Z,6.97
2018-03-26T00:12:45.585Z,5.60
2018-03-26T00:15:13.077Z,6.87
2018-03-26T00:17:40.579Z,5.33
2018-03-26T00:20:08.091Z,5.47
2018-03-26T00:22:35.607Z,7.03
2018-03-26T00:25:03.874Z,7.50
2018-03-26T00:27:31.383Z,7.40
2018-03-26T00:29:58.887Z,6.37
2018-03-26T00:32:26.371Z,7.97
2018-03-26T00:34:54.653Z,7.10
2018-03-26T00:37:22.918Z,5.57
2018-03-26T00:39:50.395Z,6.60
2018-03-26T00:42:17.967Z,7.67
2018-03-26T00:44:45.450Z,5.10
2018-03-26T00:47:12.960Z,6.97
2018-03-26T00:49:40.441Z,6.00
2018-03-26T00:52:07.962Z,4.87
2018-03-26T00:54:35.451Z,5.87
2018-03-26T00:57:02.961Z,9.97
2018-03-26T00:59:30.494Z,9.67
2018-03-26T01:01:58.016Z,7.23
2018-03-26T01:04:25.499Z,7.27
2018-03-26T01:06:52.998Z,6.50
2018-03-26T01:09:20.475Z,9.03
2018-03-26T01:11:48.007Z,7.50
2018-03-26T01:14:15.505Z,8.10
2018-03-26T01:16:42.989Z,6.40
2018-03-26T01:19:10.485Z,7.97
2018-03-26T01:21:37.972Z,5.43
2018-03-26T01:24:05.508Z,7.37
2018-03-26T01:26:33.004Z,8.17
2018-03-26T01:29:00.497Z,9.40
2018-03-26T01:31:28.017Z,6.33
2018-03-26T01:33:55.508Z,8.37
2018-03-26T01:36:22.992Z,8.43
2018-03-26T01:38:50.493Z,7.83
2018-03-26T01:41:17.983Z,8.13
2018-03-26T01:43:45.509Z,8.57
2018-03-26T01:46:13.000Z,9.30
2018-03-26T01:48:40.554Z,7.33
2018-03-26T01:51:08.042Z,6.83
2018-03-26T01:53:35.529Z,7.97
2018-03-26T01:56:03.350Z,8.20
2018-03-26T01:58:31.600Z,10.10
2018-03-26T02:00:59.147Z,9.00
2018-03-26T02:03:27.418Z,6.67
2018-03-26T02:05:54.909Z,6.20
2018-03-26T02:08:22.449Z,8.63
2018-03-26T02:10:49.932Z,8.33
2018-03-26T02:13:17.434Z,6.47
2018-03-26T02:15:44.950Z,7.00
2018-03-26T02:18:12.444Z,7.57
2018-03-26T02:20:39.950Z,6.43
2018-03-26T02:23:07.436Z,7.80
2018-03-26T02:25:34.948Z,7.43
2018-03-26T02:28:02.454Z,7.27
2018-03-26T02:30:29.943Z,9.33
2018-03-26T02:32:57.447Z,8.77
2018-03-26T02:35:24.931Z,7.13
2018-03-26T02:37:52.428Z,9.40
2018-03-26T02:40:19.927Z,7.93
2018-03-26T02:42:48.209Z,7.90
2018-03-26T02:45:15.700Z,9.57
2018-03-26T02:47:43.213Z,11.23
2018-03-26T02:50:10.719Z,12.33
2018-03-26T02:52:38.213Z,8.73
2018-03-26T02:55:05.714Z,9.10
2018-03-26T02:57:33.959Z,8.43
2018-03-26T03:00:01.474Z,8.00
2018-03-26T03:02:28.959Z,8.93
2018-03-26T03:04:56.456Z,8.93
2018-03-26T03:07:23.967Z,10.43
2018-03-26T03:09:52.237Z,8.10
2018-03-26T03:12:19.752Z,9.23
2018-03-26T03:14:47.269Z,8.13
2018-03-26T03:17:14.761Z,9.47
2018-03-26T03:19:42.255Z,9.97
2018-03-26T03:22:09.755Z,10.40
2018-03-26T03:24:37.273Z,10.43
2018-03-26T03:27:04.777Z,10.97
2018-03-26T03:29:32.290Z,11.60
2018-03-26T03:31:59.782Z,8.80
2018-03-26T03:34:28.176Z,9.63
2018-03-26T03:36:56.439Z,10.07
2018-03-26T03:39:23.935Z,10.47
2018-03-26T03:41:51.458Z,8.83
2018-03-26T03:44:18.957Z,10.20
2018-03-26T03:46:46.478Z,9.20
2018-03-26T03:49:13.971Z,8.60
2018-03-26T03:51:41.483Z,9.10
2018-03-26T03:54:08.991Z,9.90
2018-03-26T03:56:36.474Z,8.40
2018-03-26T03:59:03.982Z,11.70
2018-03-26T04:01:31.470Z,10.13
2018-03-26T04:03:58.996Z,12.33
2018-03-26T04:06:26.490Z,9.67
2018-03-26T04:08:53.980Z,12.90
2018-03-26T04:11:22.252Z,11.67
2018-03-26T04:13:50.504Z,10.90
2018-03-26T04:16:18.022Z,10.73
2018-03-26T04:18:45.510Z,10.23
2018-03-26T04:21:12.995Z,11.20
2018-03-26T04:23:40.492Z,12.73
2018-03-26T04:26:08.754Z,9.17
2018-03-26T04:28:36.254Z,11.17
2018-03-26T04:31:03.741Z,12.73
2018-03-26T04:33:31.252Z,12.80
2018-03-26T04:35:58.786Z,13.23
2018-03-26T04:38:26.266Z,12.77
2018-03-26T04:40:53.762Z,12.73
2018-03-26T04:43:21.236Z,12.37
2018-03-26T04:45:48.729Z,13.23
2018-03-26T04:48:16.243Z,13.00
2018-03-26T04:50:43.730Z,14.90
2018-03-26T04:53:11.577Z,13.23
2018-03-26T04:55:39.836Z,10.90
2018-03-26T04:58:07.331Z,13.03
2018-03-26T05:00:34.849Z,15.07
2018-03-26T05:03:02.343Z,15.13
2018-03-26T05:05:29.843Z,11.27
2018-03-26T05:07:57.356Z,12.20
2018-03-26T05:10:24.848Z,13.17
2018-03-26T05:12:52.367Z,11.47
2018-03-26T05:15:19.873Z,13.17
2018-03-26T05:17:47.389Z,17.30
2018-03-26T05:20:14.887Z,12.27
2018-03-26T05:22:42.466Z,15.27
2018-03-26T05:25:10.732Z,14.03
2018-03-26T05:27:38.689Z,18.23
2018-03-26T05:30:06.969Z,20.87
2018-03-26T05:32:34.463Z,19.63
2018-03-26T05:35:01.973Z,21.00
2018-03-26T05:37:29.502Z,18.77
2018-03-26T05:39:56.996Z,18.17
2018-03-26T05:42:24.516Z,18.33
2018-03-26T05:44:52.018Z,20.00
2018-03-26T05:47:19.843Z,20.20
2018-03-26T05:49:47.339Z,19.27
2018-03-26T05:52:14.876Z,19.87
2018-03-26T05:54:42.418Z,18.83
2018-03-26T05:57:10.687Z,17.80
2018-03-26T05:59:38.207Z,19.40
2018-03-26T06:02:05.717Z,20.57
2018-03-26T06:04:33.223Z,19.77
2018-03-26T06:07:00.732Z,21.93
2018-03-26T06:09:28.222Z,20.43
2018-03-26T06:11:56.519Z,24.07
2018-03-26T06:14:24.796Z,25.57
2018-03-26T06:17:04.086Z,28.80
2018-03-26T06:19:31.609Z,27.27
2018-03-26T06:21:59.106Z,26.33
2018-03-26T06:24:26.632Z,20.87
2018-03-26T06:26:54.124Z,24.53
2018-03-26T06:29:21.645Z,25.57
2018-03-26T06:31:49.195Z,29.23
2018-03-26T06:34:17.578Z,28.47
2018-03-26T06:37:01.671Z,31.30
2018-03-26T06:39:29.234Z,30.93
2018-03-26T06:41:56.738Z,32.73
2018-03-26T06:44:24.997Z,32.93
2018-03-26T06:46:52.590Z,36.93
2018-03-26T06:49:20.081Z,37.53
2018-03-26T06:51:47.592Z,38.17
2018-03-26T06:54:15.092Z,39.53
2018-03-26T06:56:42.627Z,34.47
2018-03-26T06:59:10.139Z,36.30
2018-03-26T07:01:37.627Z,40.17
2018-03-26T07:04:05.121Z,39.00
2018-03-26T07:06:32.641Z,47.63
2018-03-26T07:09:00.143Z,40.00
2018-03-26T07:11:27.657Z,39.40
2018-03-26T07:13:55.171Z,42.83
2018-03-26T07:16:22.686Z,43.07
2018-03-26T07:18:50.195Z,44.93
2018-03-26T07:21:17.683Z,39.30
2018-03-26T07:23:45.190Z,44.97
2018-03-26T07:26:12.685Z,44.37
2018-03-26T07:28:40.959Z,43.83
2018-03-26T07:31:08.457Z,45.57
2018-03-26T07:33:36.071Z,44.87
2018-03-26T07:36:05.092Z,45.70
2018-03-26T07:38:32.576Z,43.13
2018-03-26T07:41:00.095Z,45.80
2018-03-26T07:43:27.594Z,43.23
2018-03-26T07:45:55.088Z,46.90
2018-03-26T07:48:22.630Z,50.93
2018-03-26T07:50:50.144Z,42.87
2018-03-26T07:53:18.427Z,44.47
2018-03-26T07:55:45.946Z,45.60
2018-03-26T07:58:13.446Z,46.20
2018-03-26T08:00:40.977Z,43.33
2018-03-26T08:03:08.477Z,47.67
2018-03-26T08:05:35.983Z,47.37
2018-03-26T08:08:03.493Z,47.77
2018-03-26T08:10:30.991Z,44.87
2018-03-26T08:12:58.533Z,43.47
2018-03-26T08:15:26.044Z,49.60
2018-03-26T08:17:53.559Z,50.90
2018-03-26T08:20:21.071Z,43.40
2018-03-26T08:22:48.563Z,42.53
2018-03-26T08:25:16.862Z,42.43
2018-03-26T08:27:44.364Z,45.00
2018-03-26T08:30:11.871Z,47.37
2018-03-26T08:32:39.374Z,42.43
2018-03-26T08:35:06.912Z,46.87
2018-03-26T08:37:34.403Z,47.80
2018-03-26T08:40:01.888Z,48.07
2018-03-26T08:42:29.456Z,43.17
2018-03-26T08:44:56.921Z,47.40
2018-03-26T08:47:24.466Z,46.17
2018-03-26T08:49:52.809Z,44.47
2018-03-26T08:52:20.233Z,47.50
2018-03-26T08:54:47.738Z,49.17
2018-03-26T08:57:15.230Z,48.23
2018-03-26T08:59:43.500Z,48.13
2018-03-26T09:02:11.011Z,44.67
2018-03-26T09:04:38.501Z,50.47
2018-03-26T09:07:06.795Z,44.33
2018-03-26T09:09:34.381Z,48.23
2018-03-26T09:12:02.693Z,52.93
2018-03-26T09:14:30.173Z,48.87
2018-03-26T09:16:57.666Z,44.63
2018-03-26T09:19:25.179Z,49.23
2018-03-26T09:21:52.684Z,46.47
2018-03-26T09:24:20.188Z,52.33
2018-03-26T09:26:48.458Z,49.17
2018-03-26T09:29:16.711Z,43.77
2018-03-26T09:31:44.222Z,47.73
2018-03-26T09:34:11.744Z,49.43
2018-03-26T09:36:39.230Z,52.03
2018-03-26T09:39:07.524Z,49.33
2018-03-26T09:41:35.787Z,47.73
2018-03-26T09:44:03.305Z,50.70
2018-03-26T09:46:30.832Z,46.10
2018-03-26T09:48:59.147Z,47.90
2018-03-26T09:51:26.657Z,48.77
2018-03-26T09:53:54.186Z,51.67
2018-03-26T09:56:21.707Z,48.97
2018-03-26T09:58:50.041Z,47.00
2018-03-26T10:01:17.668Z,48.53
2018-03-26T10:03:45.216Z,43.57
2018-03-26T10:06:12.706Z,44.83
2018-03-26T10:08:40.208Z,47.00
2018-03-26T10:11:07.727Z,46.03
2018-03-26T10:13:35.239Z,49.23
2018-03-26T10:16:02.750Z,47.43
2018-03-26T10:18:30.243Z,44.37
2018-03-26T10:20:57.786Z,44.80
2018-03-26T10:23:25.285Z,41.43
2018-03-26T10:25:52.866Z,50.23
2018-03-26T10:28:20.408Z,50.93
2018-03-26T10:30:47.910Z,44.93
2018-03-26T10:33:16.189Z,46.70
2018-03-26T10:35:43.686Z,44.57
2018-03-26T10:38:11.173Z,45.83
2018-03-26T10:40:38.722Z,42.57
2018-03-26T10:43:06.221Z,47.17
2018-03-26T10:45:33.764Z,48.73
2018-03-26T10:48:01.263Z,51.13
2018-03-26T10:50:29.545Z,46.23
2018-03-26T10:52:57.074Z,52.53
2018-03-26T10:55:24.675Z,53.50
2018-03-26T10:57:52.961Z,46.77
2018-03-26T11:00:20.515Z,50.00
2018-03-26T11:02:48.045Z,50.93
2018-03-26T11:05:15.677Z,44.43
2018-03-26T11:07:43.189Z,47.50
2018-03-26T11:10:11.522Z,49.30
2018-03-26T11:12:39.041Z,46.83
2018-03-26T11:15:07.355Z,50.43
2018-03-26T11:17:34.885Z,51.40
2018-03-26T11:20:02.376Z,48.17
2018-03-26T11:22:29.894Z,47.93
2018-03-26T11:24:58.889Z,46.40
2018-03-26T11:27:26.426Z,52.60
2018-03-26T11:29:53.933Z,46.47
2018-03-26T11:32:21.469Z,48.87
2018-03-26T11:34:49.936Z,48.97
2018-03-26T11:37:17.477Z,47.43
2018-03-26T11:39:45.025Z,43.77
2018-03-26T11:42:12.530Z,43.27
2018-03-26T11:44:40.047Z,44.80
2018-03-26T11:47:08.331Z,47.90
2018-03-26T11:49:35.888Z,44.63
2018-03-26T11:52:03.442Z,45.20
2018-03-26T11:54:31.024Z,43.33
2018-03-26T11:56:59.293Z,42.07
2018-03-26T11:59:26.808Z,44.03
2018-03-26T12:01:54.308Z,41.20
2018-03-26T12:04:21.836Z,42.17
2018-03-26T12:06:49.347Z,41.57
2018-03-26T12:09:16.871Z,43.37
2018-03-26T12:11:44.468Z,45.73
2018-03-26T12:14:11.966Z,44.23
2018-03-26T12:16:39.588Z,39.23
2018-03-26T12:19:07.072Z,39.97
2018-03-26T12:21:34.592Z,45.03
2018-03-26T12:24:13.735Z,40.10
2018-03-26T12:26:41.285Z,42.27
2018-03-26T12:29:20.559Z,40.47
2018-03-26T12:31:48.070Z,41.83
2018-03-26T12:34:27.390Z,44.13
2018-03-26T12:36:54.931Z,39.03
2018-03-26T12:39:22.426Z,42.87
2018-03-26T12:41:49.924Z,39.63
2018-03-26T12:44:29.329Z,42.23
2018-03-26T12:46:56.837Z,36.13
2018-03-26T12:49:24.339Z,38.80
2018-03-26T12:52:03.567Z,38.50
2018-03-26T12:54:31.078Z,35.90
2018-03-26T12:57:10.543Z,35.30
2018-03-26T12:59:38.056Z,36.47
2018-03-26T13:02:17.370Z,34.00
2018-03-26T13:04:44.871Z,34.73
2018-03-26T13:07:12.429Z,36.07
2018-03-26T13:09:39.976Z,33.70
2018-03-26T13:12:07.480Z,34.97
2018-03-26T13:14:34.993Z,35.03
2018-03-26T13:17:02.511Z,36.43
2018-03-26T13:19:30.767Z,33.90
2018-03-26T13:21:58.341Z,36.07
2018-03-26T13:24:25.843Z,32.60
2018-03-26T13:26:53.366Z,35.73
2018-03-26T13:29:20.893Z,35.03
2018-03-26T13:31:48.392Z,35.43
2018-03-26T13:34:15.933Z,35.00
2018-03-26T13:36:43.446Z,36.33
2018-03-26T13:39:10.974Z,38.60
2018-03-26T13:41:38.501Z,39.93
2018-03-26T13:44:06.003Z,33.77
2018-03-26T13:46:33.530Z,31.43
2018-03-26T13:49:01.051Z,31.43
2018-03-26T13:51:28.618Z,33.33
2018-03-26T13:53:56.113Z,32.00
2018-03-26T13:56:23.618Z,34.10
2018-03-26T13:58:51.187Z,35.70
2018-03-26T14:01:18.720Z,36.63
2018-03-26T14:03:46.227Z,36.27
2018-03-26T14:06:13.753Z,32.97
2018-03-26T14:08:52.935Z,34.00
2018-03-26T14:11:32.304Z,33.70
2018-03-26T14:14:11.587Z,33.77
2018-03-26T14:16:50.794Z,36.23
2018-03-26T14:19:18.315Z,36.40
2018-03-26T14:21:45.813Z,34.57
2018-03-26T14:24:13.344Z,37.03
2018-03-26T14:26:40.875Z,37.47
2018-03-26T14:29:08.398Z,39.47
2018-03-26T14:31:35.927Z,38.20
2018-03-26T14:34:03.454Z,38.03
2018-03-26T14:36:32.614Z,40.53
2018-03-26T14:39:00.936Z,39.43
2018-03-26T14:41:28.441Z,38.63
2018-03-26T14:43:55.975Z,41.07
2018-03-26T14:46:24.249Z,42.17
2018-03-26T14:48:52.558Z,36.17
2018-03-26T14:51:20.111Z,36.40
2018-03-26T14:53:48.368Z,38.97
2018-03-26T14:56:15.931Z,39.97
2018-03-26T14:58:43.445Z,38.63
2018-03-26T15:01:10.996Z,36.80
2018-03-26T15:03:38.484Z,26.67
2018-03-26T15:06:06.766Z,33.70
2018-03-26T15:08:34.287Z,35.97
2018-03-26T15:11:01.811Z,28.07
2018-03-26T15:13:29.367Z,31.43
2018-03-26T15:15:56.890Z,40.67
2018-03-26T15:18:24.416Z,45.50
2018-03-26T15:20:51.967Z,42.90
2018-03-26T15:23:19.497Z,41.60
2018-03-26T15:25:47.153Z,42.10
2018-03-26T15:28:14.680Z,40.87
2018-03-26T15:30:42.222Z,41.60
2018-03-26T15:33:09.733Z,39.43
2018-03-26T15:35:37.243Z,40.90
2018-03-26T15:38:04.772Z,37.03
2018-03-26T15:40:32.298Z,40.13
2018-03-26T15:42:59.816Z,38.77
2018-03-26T15:45:27.325Z,45.13
2018-03-26T15:47:54.879Z,45.60
2018-03-26T15:50:22.427Z,43.13
2018-03-26T15:52:50.003Z,39.23
2018-03-26T15:55:17.538Z,41.63
2018-03-26T15:57:45.065Z,42.20
2018-03-26T16:00:13.339Z,40.10
2018-03-26T16:02:47.229Z,41.97
2018-03-26T16:05:14.807Z,38.83
2018-03-26T16:07:43.107Z,39.67
2018-03-26T16:10:10.634Z,37.73
2018-03-26T16:12:38.351Z,37.47
2018-03-26T16:15:05.886Z,38.63
2018-03-26T16:17:34.260Z,34.37
2018-03-26T16:20:02.528Z,35.20
2018-03-26T16:22:30.023Z,32.97
2018-03-26T16:24:58.320Z,32.67
2018-03-26T16:27:25.849Z,32.60
2018-03-26T16:29:54.187Z,33.97
2018-03-26T16:32:21.704Z,26.43
2018-03-26T16:34:50.149Z,27.00
2018-03-26T16:37:17.679Z,27.13
2018-03-26T16:39:45.231Z,25.90
2018-03-26T16:42:27.961Z,26.93
2018-03-26T16:44:55.516Z,26.17
2018-03-26T16:47:23.029Z,24.20
2018-03-26T16:49:50.543Z,28.90
2018-03-26T16:52:18.094Z,23.23
2018-03-26T16:54:45.624Z,27.93
2018-03-26T16:57:13.143Z,22.80
2018-03-26T16:59:40.666Z,26.20
2018-03-26T17:02:08.948Z,24.80
2018-03-26T17:04:37.242Z,26.73
2018-03-26T17:07:04.785Z,26.97
2018-03-26T17:09:32.316Z,35.83
2018-03-26T17:11:59.826Z,32.83
2018-03-26T17:14:27.321Z,33.87
2018-03-26T17:16:54.848Z,33.57
2018-03-26T17:19:22.398Z,34.73
2018-03-26T17:21:49.894Z,35.93
2018-03-26T17:24:17.443Z,35.20
2018-03-26T17:26:44.957Z,37.77
2018-03-26T17:29:13.270Z,34.37
2018-03-26T17:31:40.783Z,37.07
2018-03-26T17:34:08.290Z,36.23
2018-03-26T17:36:35.823Z,29.67
2018-03-26T17:39:03.423Z,32.50
2018-03-26T17:41:31.053Z,33.33
2018-03-26T17:43:58.564Z,30.27
2018-03-26T17:46:26.163Z,29.50
2018-03-26T17:48:53.695Z,29.83
2018-03-26T17:51:22.046Z,32.53
2018-03-26T17:53:49.568Z,33.27
2018-03-26T17:56:17.066Z,34.60
2018-03-26T17:58:44.590Z,27.40
2018-03-26T18:01:12.103Z,30.57
2018-03-26T18:03:39.647Z,27.70
2018-03-26T18:06:07.163Z,28.10
2018-03-26T18:08:34.671Z,33.20
2018-03-26T18:11:02.186Z,31.57
2018-03-26T18:13:30.604Z,28.83
2018-03-26T18:15:58.222Z,29.63
2018-03-26T18:18:25.736Z,28.50
2018-03-26T18:20:53.331Z,28.40
2018-03-26T18:23:20.864Z,31.47
2018-03-26T18:25:48.535Z,32.70
2018-03-26T18:28:16.087Z,34.00
2018-03-26T18:30:43.611Z,33.30
2018-03-26T18:33:11.968Z,32.97
2018-03-26T18:35:39.500Z,26.80
2018-03-26T18:38:07.810Z,30.37
2018-03-26T18:40:36.129Z,27.93
2018-03-26T18:43:03.718Z,28.00
2018-03-26T18:45:31.261Z,26.93
2018-03-26T18:47:59.594Z,28.63
2018-03-26T18:50:27.101Z,25.33
2018-03-26T18:52:54.635Z,26.30
2018-03-26T18:55:22.163Z,25.17
2018-03-26T18:57:49.701Z,26.93
2018-03-26T19:00:17.988Z,28.13
2018-03-26T19:02:45.500Z,26.83
2018-03-26T19:05:13.048Z,32.00
2018-03-26T19:07:40.553Z,30.47
2018-03-26T19:10:08.085Z,32.07
2018-03-26T19:12:35.594Z,32.10
2018-03-26T19:15:03.894Z,33.50
2018-03-26T19:17:31.422Z,31.43
2018-03-26T19:19:58.931Z,33.07
2018-03-26T19:22:26.460Z,35.10
2018-03-26T19:24:54.198Z,33.10
2018-03-26T19:27:21.696Z,28.87
2018-03-26T19:29:49.226Z,30.03
2018-03-26T19:32:16.715Z,28.50
2018-03-26T19:34:44.252Z,27.60
2018-03-26T19:37:11.734Z,27.60
2018-03-26T19:39:39.250Z,30.47
2018-03-26T19:42:06.819Z,31.23
2018-03-26T19:44:34.319Z,30.57
2018-03-26T19:47:01.857Z,32.60
2018-03-26T19:49:29.364Z,29.50
2018-03-26T19:51:57.681Z,26.17
2018-03-26T19:54:25.191Z,30.40
2018-03-26T19:56:52.698Z,29.13
2018-03-26T19:59:20.211Z,28.07
2018-03-26T20:01:47.742Z,28.30
2018-03-26T20:04:15.262Z,35.47
2018-03-26T20:06:43.520Z,32.10
2018-03-26T20:09:11.046Z,31.77
2018-03-26T20:11:38.543Z,31.20
2018-03-26T20:14:06.113Z,31.30
2018-03-26T20:16:33.673Z,35.63
2018-03-26T20:19:01.167Z,30.80
2018-03-26T20:21:29.429Z,27.93
2018-03-26T20:23:57.088Z,31.27
2018-03-26T20:26:25.390Z,28.47
2018-03-26T20:28:53.652Z,31.77
2018-03-26T20:31:21.168Z,28.90
2018-03-26T20:33:48.742Z,29.13
2018-03-26T20:36:16.247Z,33.17
2018-03-26T20:38:43.762Z,31.83
2018-03-26T20:41:11.476Z,32.70
2018-03-26T20:43:39.029Z,30.67
2018-03-26T20:46:06.547Z,31.07
2018-03-26T20:48:34.111Z,28.30
2018-03-26T20:51:01.679Z,29.87
2018-03-26T20:53:29.255Z,29.03
2018-03-26T20:55:56.809Z,29.20
2018-03-26T20:58:24.310Z,34.73
2018-03-26T21:00:51.991Z,32.33
2018-03-26T21:03:19.645Z,33.80
2018-03-26T21:05:47.173Z,29.20
2018-03-26T21:08:14.700Z,30.03
2018-03-26T21:10:42.225Z,30.97
2018-03-26T21:13:09.746Z,29.53
2018-03-26T21:15:37.441Z,28.23
2018-03-26T21:18:04.969Z,30.20
2018-03-26T21:20:33.235Z,31.20
2018-03-26T21:23:01.563Z,31.40
2018-03-26T21:25:29.096Z,28.30
2018-03-26T21:27:57.358Z,29.40
2018-03-26T21:30:24.884Z,26.03
2018-03-26T21:32:52.385Z,29.77
2018-03-26T21:35:20.683Z,31.63
2018-03-26T21:37:48.959Z,34.43
2018-03-26T21:40:16.488Z,33.23
2018-03-26T21:42:44.003Z,38.10
2018-03-26T21:45:11.515Z,36.80
2018-03-26T21:47:39.025Z,40.53
2018-03-26T21:50:06.536Z,35.10
2018-03-26T21:52:34.071Z,33.10
2018-03-26T21:55:01.628Z,35.83
2018-03-26T21:57:29.123Z,31.33
2018-03-26T21:59:56.644Z,32.87
2018-03-26T22:02:24.198Z,32.20
2018-03-26T22:04:51.695Z,23.17
2018-03-26T22:07:19.210Z,28.77
2018-03-26T22:09:46.714Z,29.87
2018-03-26T22:12:14.234Z,31.33
2018-03-26T22:14:41.766Z,27.23
2018-03-26T22:17:09.267Z,26.13
2018-03-26T22:19:37.574Z,28.53
2018-03-26T22:22:05.080Z,26.03
2018-03-26T22:24:32.598Z,25.63
2018-03-26T22:27:00.124Z,26.30
2018-03-26T22:29:28.412Z,29.50
2018-03-26T22:31:55.904Z,26.03
2018-03-26T22:34:23.419Z,29.23
2018-03-26T22:36:50.926Z,24.97
2018-03-26T22:39:18.436Z,22.57
2018-03-26T22:41:45.964Z,25.90
2018-03-26T22:44:13.464Z,27.87
2018-03-26T22:46:40.980Z,29.67
2018-03-26T22:49:08.479Z,31.30
2018-03-26T22:51:35.971Z,29.47
2018-03-26T22:54:03.486Z,36.63
2018-03-26T22:56:30.986Z,34.87
2018-03-26T22:58:58.544Z,32.03
2018-03-26T23:01:26.081Z,29.87
2018-03-26T23:03:53.592Z,33.60
2018-03-26T23:06:21.099Z,27.50
2018-03-26T23:08:48.593Z,27.40
2018-03-26T23:11:16.147Z,27.30
2018-03-26T23:13:43.675Z,26.57
2018-03-26T23:16:11.193Z,29.63
2018-03-26T23:18:38.709Z,28.43
2018-03-26T23:21:06.215Z,29.60
2018-03-26T23:23:33.750Z,28.77
2018-03-26T23:26:01.254Z,28.93
2018-03-26T23:28:28.760Z,25.33
2018-03-26T23:30:56.313Z,27.37
2018-03-26T23:33:23.813Z,26.57
2018-03-26T23:35:51.344Z,30.10
2018-03-26T23:38:18.840Z,29.30
2018-03-26T23:40:46.334Z,26.27
2018-03-26T23:43:13.847Z,25.33
2018-03-26T23:45:41.365Z,28.30
2018-03-26T23:48:08.887Z,30.13
2018-03-26T23:50:36.396Z,26.87
2018-03-26T23:53:03.922Z,28.73
2018-03-26T23:55:31.414Z,26.63
2018-03-26T23:57:58.916Z,25.43
